createdAt,value
2019-04-01T00:00:01.757Z,1
2019-04-01T00:05:01.375Z,1
2019-04-01T00:10:02.152Z,1
2019-04-01T00:15:01.507Z,1
2019-04-01T00:20:01.978Z,1
2019-04-01T00:25:01.338Z,1
2019-04-01T00:30:01.734Z,2
2019-04-01T00:35:02.140Z,1
2019-04-01T00:40:01.891Z,1
2019-04-01T00:45:02.253Z,3
2019-04-01T00:50:01.596Z,0
2019-04-01T00:55:01.944Z,0
2019-04-01T01:00:02.294Z,1
2019-04-01T01:05:01.928Z,1
2019-04-01T01:10:01.789Z,0
2019-04-01T01:15:01.905Z,2
2019-04-01T01:20:01.307Z,0
2019-04-01T01:25:01.648Z,1
2019-04-01T01:30:02.007Z,0
2019-04-01T01:35:01.390Z,2
2019-04-01T01:40:02.153Z,1
2019-04-01T01:45:01.475Z,1
2019-04-01T01:50:01.848Z,0
2019-04-01T01:55:02.227Z,1
2019-04-01T02:00:01.532Z,1
2019-04-01T02:05:02.203Z,2
2019-04-01T02:10:02.028Z,0
2019-04-01T02:15:02.305Z,0
2019-04-01T02:20:01.750Z,0
2019-04-01T02:25:02.099Z,0
2019-04-01T02:30:01.491Z,0
2019-04-01T02:35:01.842Z,0
2019-04-01T02:40:01.650Z,3
2019-04-01T02:45:02.016Z,1
2019-04-01T02:50:01.395Z,1
2019-04-01T02:55:06.357Z,1
2019-04-01T03:00:01.387Z,1
2019-04-01T03:05:02.030Z,2
2019-04-01T03:10:01.832Z,2
2019-04-01T03:15:01.972Z,3
2019-04-01T03:20:01.454Z,3
2019-04-01T03:25:01.819Z,1
2019-04-01T03:30:02.217Z,4
2019-04-01T03:35:02.177Z,1
2019-04-01T03:40:02.138Z,2
2019-04-01T03:45:01.507Z,0
2019-04-01T03:50:01.906Z,1
2019-04-01T03:55:02.263Z,1
2019-04-01T04:00:01.570Z,1
2019-04-01T04:05:02.248Z,1
2019-04-01T04:10:02.036Z,2
2019-04-01T04:15:01.460Z,1
2019-04-01T04:20:01.914Z,2
2019-04-01T04:25:02.268Z,1
2019-04-01T04:30:01.665Z,0
2019-04-01T04:35:02.051Z,0
2019-04-01T04:40:01.848Z,1
2019-04-01T04:45:02.225Z,3
2019-04-01T04:50:01.578Z,1
2019-04-01T04:55:02.018Z,1
2019-04-01T05:00:01.366Z,1
2019-04-01T05:05:02.004Z,1
2019-04-01T05:10:01.835Z,1
2019-04-01T05:15:02.261Z,2
2019-04-01T05:20:01.712Z,1
2019-04-01T05:25:02.054Z,1
2019-04-01T05:30:01.410Z,0
2019-04-01T05:35:01.753Z,0
2019-04-01T05:40:01.587Z,1
2019-04-01T05:45:01.986Z,0
2019-04-01T05:50:01.346Z,3
2019-04-01T05:55:01.719Z,1
2019-04-01T06:00:02.098Z,1
2019-04-01T06:05:01.727Z,1
2019-04-01T06:10:01.529Z,0
2019-04-01T06:15:01.967Z,1
2019-04-01T06:20:01.430Z,0
2019-04-01T06:25:01.849Z,1
2019-04-01T06:30:02.305Z,3
2019-04-01T06:35:01.638Z,0
2019-04-01T06:40:01.421Z,1
2019-04-01T06:45:01.730Z,0
2019-04-01T06:50:02.120Z,1
2019-04-01T06:55:01.517Z,0
2019-04-01T07:00:01.869Z,1
2019-04-01T07:05:01.564Z,1
2019-04-01T07:10:01.352Z,0
2019-04-01T07:15:01.552Z,1
2019-04-01T07:20:01.990Z,0
2019-04-01T07:25:01.391Z,1
2019-04-01T07:30:01.761Z,1
2019-04-01T07:35:02.136Z,1
2019-04-01T07:40:02.196Z,0
2019-04-01T07:45:01.543Z,0
2019-04-01T07:50:02.056Z,1
2019-04-01T07:55:01.425Z,0
2019-04-01T08:00:01.762Z,1
2019-04-01T08:05:01.410Z,0
2019-04-01T08:10:02.234Z,0
2019-04-01T08:15:01.563Z,1
2019-04-01T08:20:02.049Z,1
2019-04-01T08:25:01.376Z,0
2019-04-01T08:30:01.744Z,0
2019-04-01T08:35:02.087Z,2
2019-04-01T08:40:01.891Z,1
2019-04-01T08:45:02.266Z,1
2019-04-01T08:50:01.617Z,7
2019-04-01T08:55:01.969Z,17
2019-04-01T09:00:01.275Z,16
2019-04-01T09:05:01.920Z,18
2019-04-01T09:10:01.666Z,17
2019-04-01T09:15:01.470Z,13
2019-04-01T09:20:01.940Z,18
2019-04-01T09:25:02.316Z,9
2019-04-01T09:30:01.654Z,7
2019-04-01T09:35:02.002Z,10
2019-04-01T09:40:01.805Z,7
2019-04-01T09:45:02.203Z,6
2019-04-01T09:50:01.597Z,7
2019-04-01T09:55:01.940Z,7
2019-04-01T10:00:02.282Z,4
2019-04-01T10:05:01.886Z,4
2019-04-01T10:10:01.707Z,6
2019-04-01T10:15:01.499Z,5
2019-04-01T10:20:02.220Z,4
2019-04-01T10:25:01.568Z,5
2019-04-01T10:30:01.927Z,4
2019-04-01T10:35:02.272Z,5
2019-04-01T10:40:02.068Z,5
2019-04-01T10:45:01.396Z,2
2019-04-01T10:50:01.861Z,3
2019-04-01T10:55:02.328Z,2
2019-04-01T11:00:01.748Z,4
2019-04-01T11:05:01.465Z,4
2019-04-01T11:10:02.280Z,3
2019-04-01T11:15:02.088Z,2
2019-04-01T11:20:01.554Z,2
2019-04-01T11:25:01.946Z,3
2019-04-01T11:30:02.326Z,1
2019-04-01T11:35:01.701Z,2
2019-04-01T11:40:01.585Z,3
2019-04-01T11:45:05.519Z,3
2019-04-01T11:50:02.317Z,3
2019-04-01T11:55:01.669Z,3
2019-04-01T12:00:01.976Z,3
2019-04-01T12:05:01.662Z,4
2019-04-01T12:10:01.493Z,2
2019-04-01T12:15:01.778Z,3
2019-04-01T12:20:02.265Z,4
2019-04-01T12:25:01.605Z,3
2019-04-01T12:30:01.981Z,2
2019-04-01T12:35:01.347Z,2
2019-04-01T12:40:02.153Z,2
2019-04-01T12:45:01.503Z,1
2019-04-01T12:50:01.856Z,1
2019-04-01T12:55:02.228Z,3
2019-04-01T13:00:01.554Z,3
2019-04-01T13:05:02.214Z,3
2019-04-01T13:10:01.996Z,2
2019-04-01T13:15:01.713Z,4
2019-04-01T13:20:02.202Z,3
2019-04-01T13:25:03.592Z,4
2019-04-01T13:30:01.997Z,2
2019-04-01T13:35:01.333Z,3
2019-04-01T13:40:02.997Z,2
2019-04-01T13:45:02.223Z,3
2019-04-01T13:50:03.476Z,3
2019-04-01T13:55:02.048Z,2
2019-04-01T14:00:01.372Z,1
2019-04-01T14:05:05.671Z,3
2019-04-01T14:10:01.982Z,4
2019-04-01T14:15:01.719Z,2
2019-04-01T14:20:02.169Z,2
2019-04-01T14:25:01.546Z,1
2019-04-01T14:30:01.948Z,1
2019-04-01T14:35:02.301Z,1
2019-04-01T14:40:02.098Z,2
2019-04-01T14:45:01.443Z,3
2019-04-01T14:50:02.917Z,2
2019-04-01T14:55:02.557Z,2
2019-04-01T15:00:02.304Z,2
2019-04-01T15:05:04.762Z,5
2019-04-01T15:10:01.896Z,2
2019-04-01T15:15:03.948Z,3
2019-04-01T15:20:01.589Z,5
2019-04-01T15:25:02.118Z,4
2019-04-01T15:30:01.554Z,3
2019-04-01T15:35:01.931Z,3
2019-04-01T15:40:01.723Z,4
2019-04-01T15:45:02.077Z,2
2019-04-01T15:50:01.443Z,5
2019-04-01T15:55:02.605Z,2
2019-04-01T16:00:03.201Z,3
2019-04-01T16:05:02.032Z,3
2019-04-01T16:10:01.822Z,3
2019-04-01T16:15:02.072Z,2
2019-04-01T16:20:01.520Z,4
2019-04-01T16:25:01.916Z,2
2019-04-01T16:30:02.272Z,3
2019-04-01T16:35:01.644Z,2
2019-04-01T16:40:01.461Z,2
2019-04-01T16:45:01.812Z,2
2019-04-01T16:50:02.163Z,4
2019-04-01T16:55:01.555Z,4
2019-04-01T17:00:01.865Z,3
2019-04-01T17:05:01.755Z,4
2019-04-01T17:10:01.581Z,2
2019-04-01T17:15:03.637Z,4
2019-04-01T17:20:02.314Z,3
2019-04-01T17:25:01.694Z,1
2019-04-01T17:30:02.089Z,2
2019-04-01T17:35:01.425Z,3
2019-04-01T17:40:02.246Z,2
2019-04-01T17:45:01.585Z,3
2019-04-01T17:50:01.956Z,1
2019-04-01T17:55:01.309Z,2
2019-04-01T18:00:01.660Z,4
2019-04-01T18:05:01.360Z,3
2019-04-01T18:10:02.193Z,4
2019-04-01T18:15:01.683Z,3
2019-04-01T18:20:02.150Z,3
2019-04-01T18:25:01.495Z,4
2019-04-01T18:30:01.858Z,3
2019-04-01T18:35:03.972Z,4
2019-04-01T18:40:02.113Z,4
2019-04-01T18:45:01.473Z,3
2019-04-01T18:50:01.951Z,5
2019-04-01T18:55:02.512Z,3
2019-04-01T19:00:01.930Z,4
2019-04-01T19:05:01.603Z,5
2019-04-01T19:10:06.476Z,5
2019-04-01T19:15:02.578Z,5
2019-04-01T19:20:01.400Z,4
2019-04-01T19:25:01.752Z,4
2019-04-01T19:30:02.140Z,5
2019-04-01T19:35:01.491Z,9
2019-04-01T19:40:02.297Z,13
2019-04-01T19:45:01.676Z,11
2019-04-01T19:50:02.220Z,25
2019-04-01T19:55:03.180Z,26
2019-04-01T20:00:01.731Z,40
2019-04-01T20:05:01.412Z,42
2019-04-01T20:10:04.707Z,13
2019-04-01T20:15:02.106Z,34
2019-04-01T20:20:02.650Z,35
2019-04-01T20:25:02.277Z,17
2019-04-01T20:30:01.629Z,29
2019-04-01T20:35:01.988Z,35
2019-04-01T20:40:01.919Z,4
2019-04-01T20:45:02.285Z,5
2019-04-01T20:50:01.684Z,4
2019-04-01T20:55:02.030Z,4
2019-04-01T21:00:01.353Z,5
2019-04-01T21:05:02.308Z,5
2019-04-01T21:10:02.122Z,6
2019-04-01T21:15:02.025Z,5
2019-04-01T21:20:01.542Z,6
2019-04-01T21:25:02.292Z,4
2019-04-01T21:30:01.902Z,5
2019-04-01T21:35:02.284Z,7
2019-04-01T21:40:02.092Z,5
2019-04-01T21:45:01.447Z,5
2019-04-01T21:50:01.827Z,5
2019-04-01T21:55:02.199Z,8
2019-04-01T22:00:01.589Z,5
2019-04-01T22:05:02.226Z,5
2019-04-01T22:10:03.082Z,6
2019-04-01T22:15:02.214Z,4
2019-04-01T22:20:01.741Z,6
2019-04-01T22:25:02.109Z,5
2019-04-01T22:30:01.717Z,5
2019-04-01T22:35:05.076Z,4
2019-04-01T22:40:02.252Z,6
2019-04-01T22:45:02.226Z,6
2019-04-01T22:50:01.564Z,5
2019-04-01T22:55:01.933Z,6
2019-04-01T23:00:02.248Z,5
2019-04-01T23:05:01.914Z,5
2019-04-01T23:10:01.732Z,6
2019-04-01T23:15:01.474Z,7
2019-04-01T23:20:03.307Z,5
2019-04-01T23:25:01.901Z,6
2019-04-01T23:30:02.294Z,5
2019-04-01T23:35:01.659Z,8
2019-04-01T23:40:02.381Z,6
2019-04-01T23:45:01.725Z,7
2019-04-01T23:50:02.088Z,6
2019-04-01T23:55:01.478Z,6
